sensor_id;sensor_type;location;lat;lon;timestamp;temperature;humidity
34640;DHT22;22600;48.186;11.526;2023-07-22T00:01:05;25.50;49.80
34640;DHT22;22600;48.186;11.526;2023-07-22T00:03:31;25.50;49.80
34640;DHT22;22600;48.186;11.526;2023-07-22T00:06:03;25.50;49.70
34640;DHT22;22600;48.186;11.526;2023-07-22T00:08:28;25.50;49.70
34640;DHT22;22600;48.186;11.526;2023-07-22T00:10:54;25.40;49.60
34640;DHT22;22600;48.186;11.526;2023-07-22T00:13:19;25.50;49.60
34640;DHT22;22600;48.186;11.526;2023-07-22T00:15:45;25.40;49.60
34640;DHT22;22600;48.186;11.526;2023-07-22T00:18:10;25.50;49.60
34640;DHT22;22600;48.186;11.526;2023-07-22T00:20:36;25.50;49.60
34640;DHT22;22600;48.186;11.526;2023-07-22T00:23:01;25.50;49.70
34640;DHT22;22600;48.186;11.526;2023-07-22T00:25:27;25.50;49.60
34640;DHT22;22600;48.186;11.526;2023-07-22T00:27:52;25.40;49.60
34640;DHT22;22600;48.186;11.526;2023-07-22T00:30:18;25.50;49.60
34640;DHT22;22600;48.186;11.526;2023-07-22T00:32:43;25.50;49.60
34640;DHT22;22600;48.186;11.526;2023-07-22T00:35:09;25.50;49.60
34640;DHT22;22600;48.186;11.526;2023-07-22T00:37:37;25.40;49.50
34640;DHT22;22600;48.186;11.526;2023-07-22T00:40:03;25.50;49.60
34640;DHT22;22600;48.186;11.526;2023-07-22T00:42:37;25.50;49.60
34640;DHT22;22600;48.186;11.526;2023-07-22T00:45:03;25.40;49.50
34640;DHT22;22600;48.186;11.526;2023-07-22T00:47:28;25.40;49.50
34640;DHT22;22600;48.186;11.526;2023-07-22T00:49:54;25.40;49.50
34640;DHT22;22600;48.186;11.526;2023-07-22T00:52:19;27.90;51.10
34640;DHT22;22600;48.186;11.526;2023-07-22T00:54:45;25.50;49.60
34640;DHT22;22600;48.186;11.526;2023-07-22T00:57:10;25.40;49.50
34640;DHT22;22600;48.186;11.526;2023-07-22T00:59:37;25.40;49.50
34640;DHT22;22600;48.186;11.526;2023-07-22T01:02:03;25.50;49.60
34640;DHT22;22600;48.186;11.526;2023-07-22T01:04:29;25.40;49.50
34640;DHT22;22600;48.186;11.526;2023-07-22T01:06:58;25.40;49.50
34640;DHT22;22600;48.186;11.526;2023-07-22T01:09:24;25.40;49.50
34640;DHT22;22600;48.186;11.526;2023-07-22T01:11:49;25.40;49.50
34640;DHT22;22600;48.186;11.526;2023-07-22T01:14:15;25.40;49.50
34640;DHT22;22600;48.186;11.526;2023-07-22T01:16:40;25.40;49.50
34640;DHT22;22600;48.186;11.526;2023-07-22T01:19:06;25.50;49.60
34640;DHT22;22600;48.186;11.526;2023-07-22T01:21:32;25.40;49.50
34640;DHT22;22600;48.186;11.526;2023-07-22T01:23:57;25.40;49.80
34640;DHT22;22600;48.186;11.526;2023-07-22T01:26:23;25.60;49.60
34640;DHT22;22600;48.186;11.526;2023-07-22T01:28:48;25.40;49.50
34640;DHT22;22600;48.186;11.526;2023-07-22T01:31:14;25.30;49.50
34640;DHT22;22600;48.186;11.526;2023-07-22T01:33:39;25.40;49.50
34640;DHT22;22600;48.186;11.526;2023-07-22T01:36:05;25.40;49.50
34640;DHT22;22600;48.186;11.526;2023-07-22T01:38:30;25.50;49.60
34640;DHT22;22600;48.186;11.526;2023-07-22T01:40:56;25.40;49.50
34640;DHT22;22600;48.186;11.526;2023-07-22T01:43:22;25.40;49.50
34640;DHT22;22600;48.186;11.526;2023-07-22T01:45:47;25.40;49.50
34640;DHT22;22600;48.186;11.526;2023-07-22T01:48:13;25.40;49.50
34640;DHT22;22600;48.186;11.526;2023-07-22T01:50:38;25.30;49.50
34640;DHT22;22600;48.186;11.526;2023-07-22T01:53:04;25.40;49.50
34640;DHT22;22600;48.186;11.526;2023-07-22T01:55:31;25.40;49.50
34640;DHT22;22600;48.186;11.526;2023-07-22T01:57:57;25.40;49.50
34640;DHT22;22600;48.186;11.526;2023-07-22T02:00:23;25.40;49.50
34640;DHT22;22600;48.186;11.526;2023-07-22T02:02:48;25.40;49.50
34640;DHT22;22600;48.186;11.526;2023-07-22T02:05:14;25.40;49.50
34640;DHT22;22600;48.186;11.526;2023-07-22T02:07:39;25.40;49.40
34640;DHT22;22600;48.186;11.526;2023-07-22T02:10:05;25.40;49.50
34640;DHT22;22600;48.186;11.526;2023-07-22T02:12:31;25.40;49.40
34640;DHT22;22600;48.186;11.526;2023-07-22T02:14:56;25.40;49.50
34640;DHT22;22600;48.186;11.526;2023-07-22T02:17:21;27.60;50.80
34640;DHT22;22600;48.186;11.526;2023-07-22T02:19:48;25.40;49.50
34640;DHT22;22600;48.186;11.526;2023-07-22T02:22:14;25.40;49.50
34640;DHT22;22600;48.186;11.526;2023-07-22T02:24:40;25.30;49.40
34640;DHT22;22600;48.186;11.526;2023-07-22T02:27:05;25.40;49.50
34640;DHT22;22600;48.186;11.526;2023-07-22T02:29:31;25.40;49.50
34640;DHT22;22600;48.186;11.526;2023-07-22T02:31:56;25.40;49.50
34640;DHT22;22600;48.186;11.526;2023-07-22T02:34:23;25.40;49.50
34640;DHT22;22600;48.186;11.526;2023-07-22T02:36:48;25.40;49.50
34640;DHT22;22600;48.186;11.526;2023-07-22T02:39:14;25.40;49.50
34640;DHT22;22600;48.186;11.526;2023-07-22T02:41:39;25.40;49.50
34640;DHT22;22600;48.186;11.526;2023-07-22T02:44:05;25.30;49.50
34640;DHT22;22600;48.186;11.526;2023-07-22T02:46:30;25.40;49.50
34640;DHT22;22600;48.186;11.526;2023-07-22T02:48:57;25.40;49.50
34640;DHT22;22600;48.186;11.526;2023-07-22T02:51:22;26.30;50.10
34640;DHT22;22600;48.186;11.526;2023-07-22T02:53:47;25.30;49.50
34640;DHT22;22600;48.186;11.526;2023-07-22T02:56:13;25.40;49.50
34640;DHT22;22600;48.186;11.526;2023-07-22T02:58:39;25.40;49.60
34640;DHT22;22600;48.186;11.526;2023-07-22T03:01:04;25.40;49.50
34640;DHT22;22600;48.186;11.526;2023-07-22T03:03:33;25.40;49.60
34640;DHT22;22600;48.186;11.526;2023-07-22T03:05:59;25.40;49.60
34640;DHT22;22600;48.186;11.526;2023-07-22T03:08:25;29.10;51.90
34640;DHT22;22600;48.186;11.526;2023-07-22T03:10:51;25.40;49.60
34640;DHT22;22600;48.186;11.526;2023-07-22T03:13:16;25.30;49.50
34640;DHT22;22600;48.186;11.526;2023-07-22T03:15:42;25.30;49.60
34640;DHT22;22600;48.186;11.526;2023-07-22T03:18:08;25.40;49.60
34640;DHT22;22600;48.186;11.526;2023-07-22T03:20:38;25.40;49.60
34640;DHT22;22600;48.186;11.526;2023-07-22T03:23:04;25.40;49.70
34640;DHT22;22600;48.186;11.526;2023-07-22T03:25:29;27.00;50.70
34640;DHT22;22600;48.186;11.526;2023-07-22T03:27:55;25.30;49.60
34640;DHT22;22600;48.186;11.526;2023-07-22T03:30:21;25.30;49.70
34640;DHT22;22600;48.186;11.526;2023-07-22T03:32:47;25.40;49.70
34640;DHT22;22600;48.186;11.526;2023-07-22T03:35:13;25.30;49.70
34640;DHT22;22600;48.186;11.526;2023-07-22T03:37:39;25.30;49.70
34640;DHT22;22600;48.186;11.526;2023-07-22T03:40:05;25.30;49.70
34640;DHT22;22600;48.186;11.526;2023-07-22T03:42:40;25.30;49.70
34640;DHT22;22600;48.186;11.526;2023-07-22T03:45:06;25.40;49.80
34640;DHT22;22600;48.186;11.526;2023-07-22T03:47:32;25.30;49.80
34640;DHT22;22600;48.186;11.526;2023-07-22T03:49:58;25.30;49.80
34640;DHT22;22600;48.186;11.526;2023-07-22T03:52:23;25.30;49.80
34640;DHT22;22600;48.186;11.526;2023-07-22T03:54:49;25.50;50.00
34640;DHT22;22600;48.186;11.526;2023-07-22T03:57:14;25.30;49.90
34640;DHT22;22600;48.186;11.526;2023-07-22T03:59:40;26.50;50.70
34640;DHT22;22600;48.186;11.526;2023-07-22T04:02:05;27.30;51.30
34640;DHT22;22600;48.186;11.526;2023-07-22T04:04:31;25.30;50.00
34640;DHT22;22600;48.186;11.526;2023-07-22T04:06:56;25.30;50.00
34640;DHT22;22600;48.186;11.526;2023-07-22T04:09:22;25.30;50.00
34640;DHT22;22600;48.186;11.526;2023-07-22T04:11:47;25.30;50.00
34640;DHT22;22600;48.186;11.526;2023-07-22T04:14:13;25.30;50.00
34640;DHT22;22600;48.186;11.526;2023-07-22T04:16:38;25.30;50.00
34640;DHT22;22600;48.186;11.526;2023-07-22T04:19:04;25.30;49.90
34640;DHT22;22600;48.186;11.526;2023-07-22T04:21:29;25.30;49.90
34640;DHT22;22600;48.186;11.526;2023-07-22T04:23:55;25.30;49.90
34640;DHT22;22600;48.186;11.526;2023-07-22T04:26:20;25.30;49.90
34640;DHT22;22600;48.186;11.526;2023-07-22T04:28:46;25.30;49.90
34640;DHT22;22600;48.186;11.526;2023-07-22T04:31:11;25.30;49.90
34640;DHT22;22600;48.186;11.526;2023-07-22T04:33:37;28.10;51.70
34640;DHT22;22600;48.186;11.526;2023-07-22T04:36:02;25.30;49.90
34640;DHT22;22600;48.186;11.526;2023-07-22T04:38:28;25.30;49.40
34640;DHT22;22600;48.186;11.526;2023-07-22T04:40:54;25.30;49.90
34640;DHT22;22600;48.186;11.526;2023-07-22T04:43:19;25.30;49.80
34640;DHT22;22600;48.186;11.526;2023-07-22T04:45:45;25.30;49.70
34640;DHT22;22600;48.186;11.526;2023-07-22T04:48:14;25.30;49.80
34640;DHT22;22600;48.186;11.526;2023-07-22T04:50:39;25.30;49.70
34640;DHT22;22600;48.186;11.526;2023-07-22T04:53:06;25.40;49.80
34640;DHT22;22600;48.186;11.526;2023-07-22T04:55:32;25.30;49.70
34640;DHT22;22600;48.186;11.526;2023-07-22T04:57:58;25.30;49.60
34640;DHT22;22600;48.186;11.526;2023-07-22T05:00:23;25.30;49.90
34640;DHT22;22600;48.186;11.526;2023-07-22T05:02:49;25.40;49.70
34640;DHT22;22600;48.186;11.526;2023-07-22T05:05:14;25.30;49.60
34640;DHT22;22600;48.186;11.526;2023-07-22T05:07:40;25.40;49.70
34640;DHT22;22600;48.186;11.526;2023-07-22T05:10:06;25.30;49.60
34640;DHT22;22600;48.186;11.526;2023-07-22T05:12:32;25.40;49.70
34640;DHT22;22600;48.186;11.526;2023-07-22T05:14:58;25.30;49.70
34640;DHT22;22600;48.186;11.526;2023-07-22T05:17:23;25.30;49.80
34640;DHT22;22600;48.186;11.526;2023-07-22T05:19:50;25.40;49.90
34640;DHT22;22600;48.186;11.526;2023-07-22T05:22:16;25.30;49.90
34640;DHT22;22600;48.186;11.526;2023-07-22T05:24:42;25.30;49.90
34640;DHT22;22600;48.186;11.526;2023-07-22T05:27:07;25.30;49.90
34640;DHT22;22600;48.186;11.526;2023-07-22T05:29:33;25.30;49.90
34640;DHT22;22600;48.186;11.526;2023-07-22T05:31:58;25.30;49.90
34640;DHT22;22600;48.186;11.526;2023-07-22T05:34:24;25.30;49.90
34640;DHT22;22600;48.186;11.526;2023-07-22T05:36:49;25.30;49.90
34640;DHT22;22600;48.186;11.526;2023-07-22T05:39:14;25.30;49.80
34640;DHT22;22600;48.186;11.526;2023-07-22T05:41:42;25.90;50.10
34640;DHT22;22600;48.186;11.526;2023-07-22T05:44:08;25.30;49.80
34640;DHT22;22600;48.186;11.526;2023-07-22T05:46:33;25.30;49.80
34640;DHT22;22600;48.186;11.526;2023-07-22T05:48:59;25.30;49.80
34640;DHT22;22600;48.186;11.526;2023-07-22T05:51:24;25.30;49.80
34640;DHT22;22600;48.186;11.526;2023-07-22T05:53:50;25.30;49.80
34640;DHT22;22600;48.186;11.526;2023-07-22T05:56:15;25.30;49.80
34640;DHT22;22600;48.186;11.526;2023-07-22T05:58:41;25.80;50.10
34640;DHT22;22600;48.186;11.526;2023-07-22T06:01:06;25.30;49.80
34640;DHT22;22600;48.186;11.526;2023-07-22T06:03:32;25.30;49.80
34640;DHT22;22600;48.186;11.526;2023-07-22T06:05:58;25.30;49.80
34640;DHT22;22600;48.186;11.526;2023-07-22T06:08:23;25.30;49.80
34640;DHT22;22600;48.186;11.526;2023-07-22T06:10:49;25.30;49.80
34640;DHT22;22600;48.186;11.526;2023-07-22T06:13:15;25.30;49.70
34640;DHT22;22600;48.186;11.526;2023-07-22T06:15:40;27.10;50.80
34640;DHT22;22600;48.186;11.526;2023-07-22T06:18:05;25.30;49.70
34640;DHT22;22600;48.186;11.526;2023-07-22T06:20:34;25.30;49.70
34640;DHT22;22600;48.186;11.526;2023-07-22T06:23:01;25.30;49.70
34640;DHT22;22600;48.186;11.526;2023-07-22T06:25:26;25.30;49.70
34640;DHT22;22600;48.186;11.526;2023-07-22T06:27:52;25.30;49.50
34640;DHT22;22600;48.186;11.526;2023-07-22T06:30:19;25.30;49.60
34640;DHT22;22600;48.186;11.526;2023-07-22T06:32:44;25.30;49.50
34640;DHT22;22600;48.186;11.526;2023-07-22T06:35:10;25.30;49.50
34640;DHT22;22600;48.186;11.526;2023-07-22T06:37:35;25.40;49.50
34640;DHT22;22600;48.186;11.526;2023-07-22T06:40:01;25.30;49.30
34640;DHT22;22600;48.186;11.526;2023-07-22T06:42:28;25.30;49.40
34640;DHT22;22600;48.186;11.526;2023-07-22T06:44:54;25.40;49.40
34640;DHT22;22600;48.186;11.526;2023-07-22T06:47:20;25.30;49.30
34640;DHT22;22600;48.186;11.526;2023-07-22T06:49:45;28.10;51.10
34640;DHT22;22600;48.186;11.526;2023-07-22T06:52:11;25.30;49.30
34640;DHT22;22600;48.186;11.526;2023-07-22T06:54:36;25.30;49.20
34640;DHT22;22600;48.186;11.526;2023-07-22T06:57:02;25.40;49.30
34640;DHT22;22600;48.186;11.526;2023-07-22T06:59:27;25.40;49.30
34640;DHT22;22600;48.186;11.526;2023-07-22T07:01:53;25.40;49.30
34640;DHT22;22600;48.186;11.526;2023-07-22T07:04:18;25.40;49.20
34640;DHT22;22600;48.186;11.526;2023-07-22T07:06:44;25.60;49.20
34640;DHT22;22600;48.186;11.526;2023-07-22T07:09:11;25.40;49.10
34640;DHT22;22600;48.186;11.526;2023-07-22T07:11:36;25.30;49.00
34640;DHT22;22600;48.186;11.526;2023-07-22T07:14:02;25.50;49.10
34640;DHT22;22600;48.186;11.526;2023-07-22T07:16:29;25.40;49.00
34640;DHT22;22600;48.186;11.526;2023-07-22T07:18:56;25.40;48.90
34640;DHT22;22600;48.186;11.526;2023-07-22T07:21:22;25.30;48.70
34640;DHT22;22600;48.186;11.526;2023-07-22T07:23:48;25.90;49.00
34640;DHT22;22600;48.186;11.526;2023-07-22T07:26:13;25.40;48.60
34640;DHT22;22600;48.186;11.526;2023-07-22T07:28:39;25.40;48.50
34640;DHT22;22600;48.186;11.526;2023-07-22T07:31:04;25.50;48.60
34640;DHT22;22600;48.186;11.526;2023-07-22T07:33:30;25.40;48.50
34640;DHT22;22600;48.186;11.526;2023-07-22T07:35:56;25.50;48.60
34640;DHT22;22600;48.186;11.526;2023-07-22T07:38:21;25.40;48.50
34640;DHT22;22600;48.186;11.526;2023-07-22T07:40:51;25.50;48.60
34640;DHT22;22600;48.186;11.526;2023-07-22T07:43:16;25.50;48.50
34640;DHT22;22600;48.186;11.526;2023-07-22T07:45:42;25.40;48.40
34640;DHT22;22600;48.186;11.526;2023-07-22T07:48:07;25.50;48.40
34640;DHT22;22600;48.186;11.526;2023-07-22T07:50:32;25.50;48.40
34640;DHT22;22600;48.186;11.526;2023-07-22T07:52:58;25.50;48.30
34640;DHT22;22600;48.186;11.526;2023-07-22T07:55:24;25.50;48.10
34640;DHT22;22600;48.186;11.526;2023-07-22T07:57:50;25.50;48.00
34640;DHT22;22600;48.186;11.526;2023-07-22T08:00:16;25.50;47.90
34640;DHT22;22600;48.186;11.526;2023-07-22T08:02:41;29.00;50.00
34640;DHT22;22600;48.186;11.526;2023-07-22T08:05:07;25.50;47.70
34640;DHT22;22600;48.186;11.526;2023-07-22T08:07:33;25.50;47.70
34640;DHT22;22600;48.186;11.526;2023-07-22T08:09:58;25.50;47.70
34640;DHT22;22600;48.186;11.526;2023-07-22T08:12:24;25.50;47.60
34640;DHT22;22600;48.186;11.526;2023-07-22T08:14:50;25.50;47.60
34640;DHT22;22600;48.186;11.526;2023-07-22T08:17:17;25.50;47.50
34640;DHT22;22600;48.186;11.526;2023-07-22T08:19:42;25.50;47.40
34640;DHT22;22600;48.186;11.526;2023-07-22T08:22:08;25.50;47.40
34640;DHT22;22600;48.186;11.526;2023-07-22T08:24:33;25.50;47.40
34640;DHT22;22600;48.186;11.526;2023-07-22T08:26:59;25.60;47.30
34640;DHT22;22600;48.186;11.526;2023-07-22T08:29:24;25.60;47.10
34640;DHT22;22600;48.186;11.526;2023-07-22T08:31:50;25.50;47.00
34640;DHT22;22600;48.186;11.526;2023-07-22T08:34:15;25.50;46.80
34640;DHT22;22600;48.186;11.526;2023-07-22T08:36:41;25.60;46.90
34640;DHT22;22600;48.186;11.526;2023-07-22T08:39:07;25.70;46.90
34640;DHT22;22600;48.186;11.526;2023-07-22T08:41:33;25.60;46.80
34640;DHT22;22600;48.186;11.526;2023-07-22T08:44:01;25.60;46.70
34640;DHT22;22600;48.186;11.526;2023-07-22T08:46:29;25.60;46.60
34640;DHT22;22600;48.186;11.526;2023-07-22T08:48:57;26.90;47.40
34640;DHT22;22600;48.186;11.526;2023-07-22T08:51:24;25.60;46.50
34640;DHT22;22600;48.186;11.526;2023-07-22T08:53:50;25.60;46.50
34640;DHT22;22600;48.186;11.526;2023-07-22T08:56:16;25.60;46.40
34640;DHT22;22600;48.186;11.526;2023-07-22T08:58:42;25.60;46.30
34640;DHT22;22600;48.186;11.526;2023-07-22T09:01:08;25.60;46.30
34640;DHT22;22600;48.186;11.526;2023-07-22T09:03:33;25.60;46.10
34640;DHT22;22600;48.186;11.526;2023-07-22T09:05:59;25.60;45.90
34640;DHT22;22600;48.186;11.526;2023-07-22T09:08:25;25.60;45.70
34640;DHT22;22600;48.186;11.526;2023-07-22T09:10:51;25.60;45.60
34640;DHT22;22600;48.186;11.526;2023-07-22T09:13:17;25.60;45.40
34640;DHT22;22600;48.186;11.526;2023-07-22T09:15:43;25.70;45.60
34640;DHT22;22600;48.186;11.526;2023-07-22T09:18:10;25.60;45.40
34640;DHT22;22600;48.186;11.526;2023-07-22T09:20:36;25.60;45.30
34640;DHT22;22600;48.186;11.526;2023-07-22T09:23:01;27.60;46.30
34640;DHT22;22600;48.186;11.526;2023-07-22T09:25:27;25.60;44.80
34640;DHT22;22600;48.186;11.526;2023-07-22T09:27:54;25.60;44.70
34640;DHT22;22600;48.186;11.526;2023-07-22T09:30:20;25.60;44.50
34640;DHT22;22600;48.186;11.526;2023-07-22T09:32:46;25.60;44.30
34640;DHT22;22600;48.186;11.526;2023-07-22T09:35:11;25.70;44.20
34640;DHT22;22600;48.186;11.526;2023-07-22T09:37:37;25.60;44.20
34640;DHT22;22600;48.186;11.526;2023-07-22T09:43:00;25.60;44.30
34640;DHT22;22600;48.186;11.526;2023-07-22T09:45:28;25.60;44.20
34640;DHT22;22600;48.186;11.526;2023-07-22T09:47:54;25.60;44.10
34640;DHT22;22600;48.186;11.526;2023-07-22T09:50:21;25.60;44.00
34640;DHT22;22600;48.186;11.526;2023-07-22T09:52:51;25.70;43.90
34640;DHT22;22600;48.186;11.526;2023-07-22T09:55:18;25.60;43.80
34640;DHT22;22600;48.186;11.526;2023-07-22T09:57:45;25.60;43.90
34640;DHT22;22600;48.186;11.526;2023-07-22T10:00:12;25.60;44.00
34640;DHT22;22600;48.186;11.526;2023-07-22T10:02:40;25.60;44.10
34640;DHT22;22600;48.186;11.526;2023-07-22T10:05:05;25.60;44.00
34640;DHT22;22600;48.186;11.526;2023-07-22T10:07:33;25.60;44.10
34640;DHT22;22600;48.186;11.526;2023-07-22T10:09:59;25.60;44.00
34640;DHT22;22600;48.186;11.526;2023-07-22T10:12:25;25.60;43.90
34640;DHT22;22600;48.186;11.526;2023-07-22T10:14:52;25.60;43.80
34640;DHT22;22600;48.186;11.526;2023-07-22T10:17:18;25.60;43.80
34640;DHT22;22600;48.186;11.526;2023-07-22T10:19:44;25.60;43.70
34640;DHT22;22600;48.186;11.526;2023-07-22T10:22:10;25.60;44.20
34640;DHT22;22600;48.186;11.526;2023-07-22T10:24:36;25.60;43.80
34640;DHT22;22600;48.186;11.526;2023-07-22T10:27:02;25.60;43.60
34640;DHT22;22600;48.186;11.526;2023-07-22T10:29:28;25.60;43.50
34640;DHT22;22600;48.186;11.526;2023-07-22T10:31:54;25.60;43.50
34640;DHT22;22600;48.186;11.526;2023-07-22T10:34:21;25.60;43.40
34640;DHT22;22600;48.186;11.526;2023-07-22T10:36:47;25.60;43.70
34640;DHT22;22600;48.186;11.526;2023-07-22T10:39:17;25.50;43.50
34640;DHT22;22600;48.186;11.526;2023-07-22T10:41:49;25.60;43.50
34640;DHT22;22600;48.186;11.526;2023-07-22T10:44:15;25.60;43.30
34640;DHT22;22600;48.186;11.526;2023-07-22T10:46:42;26.90;44.10
34640;DHT22;22600;48.186;11.526;2023-07-22T10:49:10;25.60;43.30
34640;DHT22;22600;48.186;11.526;2023-07-22T10:51:36;25.60;43.50
34640;DHT22;22600;48.186;11.526;2023-07-22T10:54:02;25.50;43.50
34640;DHT22;22600;48.186;11.526;2023-07-22T10:56:28;25.50;43.30
34640;DHT22;22600;48.186;11.526;2023-07-22T11:11:53;25.50;43.40
34640;DHT22;22600;48.186;11.526;2023-07-22T11:14:22;25.50;43.70
34640;DHT22;22600;48.186;11.526;2023-07-22T11:16:48;25.50;43.50
34640;DHT22;22600;48.186;11.526;2023-07-22T11:19:14;25.50;43.40
34640;DHT22;22600;48.186;11.526;2023-07-22T11:21:40;25.50;43.30
34640;DHT22;22600;48.186;11.526;2023-07-22T11:24:06;25.50;43.20
34640;DHT22;22600;48.186;11.526;2023-07-22T11:26:32;25.40;43.10
34640;DHT22;22600;48.186;11.526;2023-07-22T11:28:59;25.50;43.20
34640;DHT22;22600;48.186;11.526;2023-07-22T11:31:38;25.50;43.10
34640;DHT22;22600;48.186;11.526;2023-07-22T11:34:11;25.50;43.10
34640;DHT22;22600;48.186;11.526;2023-07-22T11:36:36;25.50;43.20
34640;DHT22;22600;48.186;11.526;2023-07-22T11:39:06;25.50;43.10
34640;DHT22;22600;48.186;11.526;2023-07-22T11:41:32;25.50;43.10
34640;DHT22;22600;48.186;11.526;2023-07-22T11:43:58;25.50;43.30
34640;DHT22;22600;48.186;11.526;2023-07-22T11:46:24;25.50;43.30
34640;DHT22;22600;48.186;11.526;2023-07-22T11:48:50;25.50;43.30
34640;DHT22;22600;48.186;11.526;2023-07-22T11:51:17;23.20;42.20
34640;DHT22;22600;48.186;11.526;2023-07-22T11:53:43;25.40;43.30
34640;DHT22;22600;48.186;11.526;2023-07-22T11:56:08;25.50;43.40
34640;DHT22;22600;48.186;11.526;2023-07-22T11:58:34;25.40;43.40
34640;DHT22;22600;48.186;11.526;2023-07-22T12:01:06;25.40;43.30
34640;DHT22;22600;48.186;11.526;2023-07-22T12:03:33;25.40;43.30
34640;DHT22;22600;48.186;11.526;2023-07-22T12:06:17;25.40;43.30
34640;DHT22;22600;48.186;11.526;2023-07-22T12:08:43;25.40;44.00
34640;DHT22;22600;48.186;11.526;2023-07-22T12:11:15;25.40;43.30
34640;DHT22;22600;48.186;11.526;2023-07-22T12:13:40;25.40;43.30
34640;DHT22;22600;48.186;11.526;2023-07-22T12:16:10;25.50;43.30
34640;DHT22;22600;48.186;11.526;2023-07-22T12:18:42;25.40;43.10
34640;DHT22;22600;48.186;11.526;2023-07-22T12:21:08;25.40;43.00
34640;DHT22;22600;48.186;11.526;2023-07-22T12:23:35;25.40;43.00
34640;DHT22;22600;48.186;11.526;2023-07-22T12:26:01;25.40;43.30
34640;DHT22;22600;48.186;11.526;2023-07-22T12:28:26;25.50;43.00
34640;DHT22;22600;48.186;11.526;2023-07-22T12:30:52;25.40;42.90
34640;DHT22;22600;48.186;11.526;2023-07-22T12:33:17;25.40;43.00
34640;DHT22;22600;48.186;11.526;2023-07-22T12:35:43;25.40;43.10
34640;DHT22;22600;48.186;11.526;2023-07-22T12:38:08;25.50;43.20
34640;DHT22;22600;48.186;11.526;2023-07-22T12:40:33;25.40;43.10
34640;DHT22;22600;48.186;11.526;2023-07-22T12:42:59;25.90;43.50
34640;DHT22;22600;48.186;11.526;2023-07-22T12:45:24;25.40;43.10
34640;DHT22;22600;48.186;11.526;2023-07-22T12:47:50;25.40;43.10
34640;DHT22;22600;48.186;11.526;2023-07-22T12:50:15;25.40;43.00
34640;DHT22;22600;48.186;11.526;2023-07-22T12:52:41;25.40;42.90
34640;DHT22;22600;48.186;11.526;2023-07-22T12:55:06;25.40;43.00
34640;DHT22;22600;48.186;11.526;2023-07-22T12:57:32;25.40;42.90
34640;DHT22;22600;48.186;11.526;2023-07-22T12:59:57;25.30;42.90
34640;DHT22;22600;48.186;11.526;2023-07-22T13:02:23;25.40;42.90
34640;DHT22;22600;48.186;11.526;2023-07-22T13:04:48;25.40;42.90
34640;DHT22;22600;48.186;11.526;2023-07-22T13:07:14;25.30;42.80
34640;DHT22;22600;48.186;11.526;2023-07-22T13:09:39;25.30;42.90
34640;DHT22;22600;48.186;11.526;2023-07-22T13:12:06;25.40;42.90
34640;DHT22;22600;48.186;11.526;2023-07-22T13:14:31;25.30;42.90
34640;DHT22;22600;48.186;11.526;2023-07-22T13:16:57;26.90;43.50
34640;DHT22;22600;48.186;11.526;2023-07-22T13:19:22;25.30;41.60
34640;DHT22;22600;48.186;11.526;2023-07-22T13:21:48;25.30;41.50
34640;DHT22;22600;48.186;11.526;2023-07-22T13:24:13;25.30;41.50
34640;DHT22;22600;48.186;11.526;2023-07-22T13:26:39;25.30;41.70
34640;DHT22;22600;48.186;11.526;2023-07-22T13:29:05;25.30;41.30
34640;DHT22;22600;48.186;11.526;2023-07-22T13:31:30;25.30;41.40
34640;DHT22;22600;48.186;11.526;2023-07-22T13:33:57;25.40;40.90
34640;DHT22;22600;48.186;11.526;2023-07-22T13:36:23;25.30;40.90
34640;DHT22;22600;48.186;11.526;2023-07-22T13:38:48;25.30;41.00
34640;DHT22;22600;48.186;11.526;2023-07-22T13:41:13;25.30;41.10
34640;DHT22;22600;48.186;11.526;2023-07-22T13:43:39;25.30;40.40
34640;DHT22;22600;48.186;11.526;2023-07-22T13:46:05;25.30;40.90
34640;DHT22;22600;48.186;11.526;2023-07-22T13:48:30;25.30;41.30
34640;DHT22;22600;48.186;11.526;2023-07-22T13:50:56;27.50;42.40
34640;DHT22;22600;48.186;11.526;2023-07-22T13:53:21;25.30;40.30
34640;DHT22;22600;48.186;11.526;2023-07-22T13:55:47;25.30;40.50
34640;DHT22;22600;48.186;11.526;2023-07-22T13:58:13;25.30;40.90
34640;DHT22;22600;48.186;11.526;2023-07-22T14:00:38;25.30;40.70
34640;DHT22;22600;48.186;11.526;2023-07-22T14:03:04;25.30;40.40
34640;DHT22;22600;48.186;11.526;2023-07-22T14:05:30;25.30;40.20
34640;DHT22;22600;48.186;11.526;2023-07-22T14:07:56;25.30;40.50
34640;DHT22;22600;48.186;11.526;2023-07-22T14:10:21;25.30;40.30
34640;DHT22;22600;48.186;11.526;2023-07-22T14:12:47;25.30;40.30
34640;DHT22;22600;48.186;11.526;2023-07-22T14:15:12;25.30;40.00
34640;DHT22;22600;48.186;11.526;2023-07-22T14:17:38;25.30;39.90
34640;DHT22;22600;48.186;11.526;2023-07-22T14:20:04;25.30;40.20
34640;DHT22;22600;48.186;11.526;2023-07-22T14:22:30;25.30;40.50
34640;DHT22;22600;48.186;11.526;2023-07-22T14:24:55;26.40;41.50
34640;DHT22;22600;48.186;11.526;2023-07-22T14:27:21;25.30;40.50
34640;DHT22;22600;48.186;11.526;2023-07-22T14:29:46;25.30;40.10
34640;DHT22;22600;48.186;11.526;2023-07-22T14:32:12;25.20;39.80
34640;DHT22;22600;48.186;11.526;2023-07-22T14:34:37;25.30;39.80
34640;DHT22;22600;48.186;11.526;2023-07-22T14:37:03;25.30;39.60
34640;DHT22;22600;48.186;11.526;2023-07-22T14:39:29;25.30;39.40
34640;DHT22;22600;48.186;11.526;2023-07-22T14:41:55;25.30;39.40
34640;DHT22;22600;48.186;11.526;2023-07-22T14:44:20;25.20;39.50
34640;DHT22;22600;48.186;11.526;2023-07-22T14:46:46;25.30;39.30
34640;DHT22;22600;48.186;11.526;2023-07-22T14:49:12;25.20;39.20
34640;DHT22;22600;48.186;11.526;2023-07-22T14:51:37;25.20;39.30
34640;DHT22;22600;48.186;11.526;2023-07-22T14:54:03;25.30;39.80
34640;DHT22;22600;48.186;11.526;2023-07-22T14:56:29;25.20;39.40
34640;DHT22;22600;48.186;11.526;2023-07-22T14:58:54;25.20;39.30
34640;DHT22;22600;48.186;11.526;2023-07-22T15:01:21;25.30;39.40
34640;DHT22;22600;48.186;11.526;2023-07-22T15:03:46;25.20;39.20
34640;DHT22;22600;48.186;11.526;2023-07-22T15:06:12;25.20;39.10
34640;DHT22;22600;48.186;11.526;2023-07-22T15:08:37;25.20;39.00
34640;DHT22;22600;48.186;11.526;2023-07-22T15:11:03;25.20;39.10
34640;DHT22;22600;48.186;11.526;2023-07-22T15:13:28;25.30;39.20
34640;DHT22;22600;48.186;11.526;2023-07-22T15:15:54;25.20;39.00
34640;DHT22;22600;48.186;11.526;2023-07-22T15:18:22;25.30;39.20
34640;DHT22;22600;48.186;11.526;2023-07-22T15:20:47;25.20;39.10
34640;DHT22;22600;48.186;11.526;2023-07-22T15:23:12;25.20;39.50